createdAt,value
2022-10-04T00:00:51.314Z,102058.09
2022-10-04T00:03:25.487Z,102047.59
2022-10-04T00:05:57.416Z,102053.47
2022-10-04T00:08:31.104Z,102054.16
2022-10-04T00:11:05.192Z,102049.88
2022-10-04T00:13:33.895Z,102045.34
2022-10-04T00:16:02.328Z,102041.03
2022-10-04T00:18:33.021Z,102043.88
2022-10-04T00:21:05.062Z,102058.56
2022-10-04T00:23:45.686Z,102049.28
2022-10-04T00:26:50.177Z,102043.75
2022-10-04T00:29:34.878Z,102040.84
2022-10-04T00:32:29.956Z,102035.41
2022-10-04T00:34:58.869Z,102032.16
2022-10-04T00:37:29.273Z,102033.03
2022-10-04T00:40:09.537Z,102023.06
2022-10-04T00:42:45.214Z,102012.66
2022-10-04T00:45:18.216Z,102020.75
2022-10-04T00:48:00.098Z,102024.03
2022-10-04T00:50:31.511Z,102044.19
2022-10-04T00:53:02.101Z,102035.75
2022-10-04T00:55:34.662Z,102026.00
2022-10-04T00:58:04.190Z,102019.69
2022-10-04T01:00:33.482Z,102023.81
2022-10-04T01:03:04.044Z,102009.44
2022-10-04T01:05:35.006Z,102016.03
2022-10-04T01:08:08.982Z,102027.22
2022-10-04T01:10:41.890Z,102006.72
2022-10-04T01:13:14.133Z,102008.34
2022-10-04T01:15:46.252Z,102005.88
2022-10-04T01:18:16.717Z,102002.50
2022-10-04T01:20:54.522Z,101998.03
2022-10-04T01:23:38.628Z,101989.63
2022-10-04T01:26:08.743Z,101997.41
2022-10-04T01:28:38.578Z,101999.78
2022-10-04T01:31:07.307Z,101995.88
2022-10-04T01:33:36.974Z,101994.91
2022-10-04T01:36:05.255Z,101989.03
2022-10-04T01:38:33.159Z,101990.03
2022-10-04T01:41:04.937Z,101998.91
2022-10-04T01:43:34.977Z,101997.75
2022-10-04T01:46:07.925Z,101999.88
2022-10-04T01:48:38.390Z,101991.66
2022-10-04T01:51:08.922Z,101983.84
2022-10-04T01:53:41.809Z,101988.06
2022-10-04T01:56:15.505Z,101990.34
2022-10-04T01:58:46.202Z,101991.75
2022-10-04T02:01:17.734Z,101978.00
2022-10-04T02:03:49.846Z,101986.44
2022-10-04T02:06:17.937Z,101985.69
2022-10-04T02:08:49.483Z,101981.69
2022-10-04T02:11:21.475Z,101963.47
2022-10-04T02:13:51.466Z,101950.28
2022-10-04T02:16:20.080Z,101949.28
2022-10-04T02:18:48.358Z,101959.69
2022-10-04T02:21:16.873Z,101950.81
2022-10-04T02:23:45.281Z,101958.38
2022-10-04T02:26:14.012Z,101951.22
2022-10-04T02:28:43.402Z,101947.84
2022-10-04T02:31:28.754Z,101957.41
2022-10-04T02:33:58.481Z,101955.56
2022-10-04T02:36:28.572Z,101947.22
2022-10-04T02:39:01.750Z,101947.44
2022-10-04T02:41:32.078Z,101939.19
2022-10-04T02:44:04.684Z,101936.16
2022-10-04T02:46:35.164Z,101927.78
2022-10-04T02:49:06.881Z,101916.19
2022-10-04T02:51:39.067Z,101909.16
2022-10-04T02:54:08.706Z,101914.03
2022-10-04T02:56:37.856Z,101919.56
2022-10-04T02:59:08.305Z,101915.22
2022-10-04T03:01:47.061Z,101907.53
2022-10-04T03:04:15.970Z,101913.06
2022-10-04T03:06:46.069Z,101914.91
2022-10-04T03:09:15.081Z,101909.38
2022-10-04T03:11:43.967Z,101909.16
2022-10-04T03:14:16.734Z,101910.03
2022-10-04T03:16:46.539Z,101909.06
2022-10-04T03:19:17.079Z,101904.72
2022-10-04T03:21:47.813Z,101910.78
2022-10-04T03:24:23.521Z,101908.06
2022-10-04T03:26:54.492Z,101915.44
2022-10-04T03:29:25.683Z,101910.03
2022-10-04T03:31:58.393Z,101912.75
2022-10-04T03:34:27.706Z,101907.66
2022-10-04T03:36:59.177Z,101896.69
2022-10-04T03:39:34.451Z,101899.06
2022-10-04T03:42:04.825Z,101906.22
2022-10-04T03:44:34.287Z,101913.81
2022-10-04T03:47:02.480Z,101921.75
2022-10-04T03:49:33.749Z,101915.97
2022-10-04T03:52:02.628Z,101911.97
2022-10-04T03:54:31.074Z,101910.56
2022-10-04T03:57:00.373Z,101906.56
2022-10-04T03:59:28.688Z,101904.50
2022-10-04T04:02:05.126Z,101908.41
2022-10-04T04:04:42.138Z,101904.16
2022-10-04T04:07:14.269Z,101897.22
2022-10-04T04:09:45.855Z,101900.59
2022-10-04T04:12:19.836Z,101895.28
2022-10-04T04:14:50.792Z,101898.84
2022-10-04T04:17:31.920Z,101904.28
2022-10-04T04:20:06.315Z,101899.59
2022-10-04T04:22:36.470Z,101895.41
2022-10-04T04:25:08.375Z,101897.16
2022-10-04T04:27:40.075Z,101898.44
2022-10-04T04:30:09.971Z,101912.53
2022-10-04T04:32:41.113Z,101894.44
2022-10-04T04:35:22.988Z,101892.06
2022-10-04T04:38:08.084Z,101884.44
2022-10-04T04:40:37.855Z,101880.97
2022-10-04T04:43:06.004Z,101881.97
2022-10-04T04:45:35.875Z,101883.25
2022-10-04T04:48:07.210Z,101884.97
2022-10-04T04:50:37.413Z,101898.44
2022-10-04T04:53:09.009Z,101885.31
2022-10-04T04:56:02.325Z,101885.66
2022-10-04T04:58:33.266Z,101886.81
2022-10-04T05:01:03.100Z,101886.31
2022-10-04T05:03:34.122Z,101882.94
2022-10-04T05:06:04.870Z,101889.31
2022-10-04T05:08:40.182Z,101880.97
2022-10-04T05:11:13.337Z,101875.78
2022-10-04T05:13:43.698Z,101870.47
2022-10-04T05:16:14.688Z,101872.50
2022-10-04T05:18:44.249Z,101871.56
2022-10-04T05:21:16.578Z,101862.69
2022-10-04T05:23:44.643Z,101868.94
2022-10-04T05:26:13.200Z,101865.59
2022-10-04T05:28:41.471Z,101862.97
2022-10-04T05:31:24.230Z,101863.97
2022-10-04T05:33:57.481Z,101869.47
2022-10-04T05:36:48.529Z,101858.00
2022-10-04T05:39:24.092Z,101862.75
2022-10-04T05:41:58.001Z,101857.34
2022-10-04T05:44:28.721Z,101859.28
2022-10-04T05:46:57.801Z,101869.78
2022-10-04T05:49:30.743Z,101871.00
2022-10-04T05:52:01.940Z,101869.13
2022-10-04T05:54:32.905Z,101864.16
2022-10-04T05:57:33.385Z,101862.53
2022-10-04T06:00:09.541Z,101866.47
2022-10-04T06:03:15.474Z,101867.09
2022-10-04T06:05:50.949Z,101870.69
2022-10-04T06:08:29.689Z,101871.34
2022-10-04T06:11:06.305Z,101869.50
2022-10-04T06:13:59.489Z,101877.63
2022-10-04T06:16:35.381Z,101872.75
2022-10-04T06:19:18.521Z,101873.94
2022-10-04T06:22:02.418Z,101886.41
2022-10-04T06:24:32.105Z,101870.13
2022-10-04T06:27:05.846Z,101873.19
2022-10-04T06:29:36.981Z,101875.25
2022-10-04T06:32:34.335Z,101875.00
2022-10-04T06:35:32.495Z,101871.34
2022-10-04T06:38:28.506Z,101875.59
2022-10-04T06:41:13.337Z,101882.28
2022-10-04T06:43:56.969Z,101874.47
2022-10-04T06:46:30.039Z,101873.94
2022-10-04T06:49:18.549Z,101878.03
2022-10-04T06:52:07.346Z,101868.69
2022-10-04T06:54:47.814Z,101861.56
2022-10-04T06:57:41.281Z,101852.41
2022-10-04T07:00:11.302Z,101862.41
2022-10-04T07:02:43.236Z,101867.06
2022-10-04T07:05:20.419Z,101877.16
2022-10-04T07:07:50.477Z,101873.59
2022-10-04T07:10:33.414Z,101870.44
2022-10-04T07:13:11.792Z,101877.13
2022-10-04T07:15:47.518Z,101879.41
2022-10-04T07:18:19.691Z,101879.19
2022-10-04T07:20:49.073Z,101881.69
2022-10-04T07:23:28.211Z,101883.19
2022-10-04T07:26:01.495Z,101888.78
2022-10-04T07:28:49.710Z,101891.06
2022-10-04T07:31:26.237Z,101891.03
2022-10-04T07:33:58.347Z,101892.56
2022-10-04T07:36:29.219Z,101891.13
2022-10-04T07:39:00.321Z,101890.31
2022-10-04T07:41:32.633Z,101890.69
2022-10-04T07:44:04.407Z,101891.50
2022-10-04T07:46:52.878Z,101892.91
2022-10-04T07:49:22.561Z,101895.06
2022-10-04T07:52:04.653Z,101886.00
2022-10-04T07:54:38.589Z,101891.94
2022-10-04T07:57:13.313Z,101883.22
2022-10-04T07:59:46.378Z,101891.72
2022-10-04T08:02:26.648Z,101892.13
2022-10-04T08:05:04.133Z,101887.41
2022-10-04T08:07:43.282Z,101891.13
2022-10-04T08:10:14.798Z,101885.56
2022-10-04T08:12:51.398Z,101886.47
2022-10-04T08:15:34.324Z,101882.28
2022-10-04T08:18:12.674Z,101881.28
2022-10-04T08:20:48.199Z,101883.38
2022-10-04T08:23:35.497Z,101882.75
2022-10-04T08:26:13.750Z,101886.34
2022-10-04T08:29:06.254Z,101881.66
2022-10-04T08:31:54.321Z,101877.56
2022-10-04T08:34:34.538Z,101882.47
2022-10-04T08:37:10.317Z,101875.19
2022-10-04T08:39:49.539Z,101880.84
2022-10-04T08:42:33.690Z,101885.19
2022-10-04T08:45:54.210Z,101883.31
2022-10-04T08:49:01.231Z,101889.41
2022-10-04T08:52:19.759Z,101883.06
2022-10-04T08:55:25.118Z,101889.00
2022-10-04T08:58:15.260Z,101886.63
2022-10-04T09:00:53.525Z,101882.66
2022-10-04T09:03:37.450Z,101876.56
2022-10-04T09:06:33.182Z,101880.25
2022-10-04T09:09:44.868Z,101871.41
2022-10-04T09:12:33.726Z,101883.41
2022-10-04T09:15:26.224Z,101879.31
2022-10-04T09:18:03.410Z,101880.94
2022-10-04T09:20:44.877Z,101875.94
2022-10-04T09:23:37.529Z,101873.28
2022-10-04T09:26:21.284Z,101861.06
2022-10-04T09:29:10.268Z,101853.34
2022-10-04T09:31:48.237Z,101861.13
2022-10-04T09:34:36.391Z,101859.94
2022-10-04T09:37:26.341Z,101857.97
2022-10-04T09:40:27.650Z,101852.03
2022-10-04T09:43:19.102Z,101850.19
2022-10-04T09:46:10.322Z,101864.53
2022-10-04T09:48:40.679Z,101861.72
2022-10-04T09:51:26.198Z,101863.19
2022-10-04T09:54:10.838Z,101862.59
2022-10-04T09:56:59.269Z,101852.63
2022-10-04T10:00:02.877Z,101859.53
2022-10-04T10:03:11.018Z,101860.00
2022-10-04T10:06:21.778Z,101861.16
2022-10-04T10:09:04.130Z,101862.28
2022-10-04T10:11:56.779Z,101863.16
2022-10-04T10:15:04.370Z,101861.69
2022-10-04T10:17:40.277Z,101856.94
2022-10-04T10:20:29.986Z,101855.66
2022-10-04T10:23:39.570Z,101854.97
2022-10-04T10:26:51.718Z,101856.28
2022-10-04T10:30:08.206Z,101854.13
2022-10-04T10:33:01.574Z,101838.44
2022-10-04T10:35:39.850Z,101839.03
2022-10-04T10:38:26.187Z,101836.84
2022-10-04T10:41:19.583Z,101845.06
2022-10-04T10:44:07.887Z,101848.78
2022-10-04T10:46:47.525Z,101847.91
2022-10-04T10:49:44.332Z,101838.03
2022-10-04T10:53:00.149Z,101854.41
2022-10-04T10:55:39.981Z,101851.69
2022-10-04T10:58:34.221Z,101843.63
2022-10-04T11:01:15.763Z,101848.38
2022-10-04T11:04:05.822Z,101840.72
2022-10-04T11:06:58.923Z,101842.47
2022-10-04T11:09:32.893Z,101843.16
2022-10-04T11:12:39.927Z,101845.69
2022-10-04T11:15:34.975Z,101841.97
2022-10-04T11:18:19.262Z,101840.78
2022-10-04T11:21:11.755Z,101844.16
2022-10-04T11:24:08.579Z,101835.56
2022-10-04T11:26:57.050Z,101825.03
2022-10-04T11:29:39.978Z,101823.78
2022-10-04T11:32:47.600Z,101815.31
2022-10-04T11:35:36.949Z,101823.59
2022-10-04T11:38:14.802Z,101823.56
2022-10-04T11:41:01.393Z,101816.84
2022-10-04T11:43:55.616Z,101813.03
2022-10-04T11:46:33.789Z,101807.97
2022-10-04T11:49:14.264Z,101811.88
2022-10-04T11:52:29.746Z,101811.22
2022-10-04T11:55:23.437Z,101802.66
2022-10-04T11:57:56.188Z,101788.56
2022-10-04T12:00:25.174Z,101786.59
2022-10-04T12:03:31.473Z,101789.81
2022-10-04T12:06:27.004Z,101779.19
2022-10-04T12:09:05.994Z,101766.31
2022-10-04T12:12:13.958Z,101766.09
2022-10-04T12:14:52.149Z,101765.00
2022-10-04T12:17:39.986Z,101768.59
2022-10-04T12:20:56.889Z,101766.81
2022-10-04T12:23:49.700Z,101753.94
2022-10-04T12:26:57.205Z,101749.31
2022-10-04T12:29:43.843Z,101745.72
2022-10-04T12:32:18.724Z,101743.53
2022-10-04T12:34:54.933Z,101740.25
2022-10-04T12:37:28.562Z,101735.88
2022-10-04T12:40:08.677Z,101736.63
2022-10-04T12:42:41.573Z,101728.47
2022-10-04T12:45:27.346Z,101737.41
2022-10-04T12:48:12.665Z,101737.19
2022-10-04T12:50:48.906Z,101740.72
2022-10-04T12:53:24.230Z,101739.28
2022-10-04T12:56:05.929Z,101730.53
2022-10-04T12:58:44.470Z,101730.50
2022-10-04T13:01:18.916Z,101724.44
2022-10-04T13:04:06.918Z,101730.09
2022-10-04T13:06:43.826Z,101732.69
2022-10-04T13:09:17.865Z,101723.59
2022-10-04T13:12:05.341Z,101730.66
2022-10-04T13:14:57.115Z,101723.28
2022-10-04T13:17:36.473Z,101721.94
2022-10-04T13:20:26.047Z,101724.84
2022-10-04T13:22:58.154Z,101722.88
2022-10-04T13:25:53.251Z,101713.19
2022-10-04T13:28:26.574Z,101703.81
2022-10-04T13:31:01.103Z,101694.00
2022-10-04T13:33:34.940Z,101687.94
2022-10-04T13:36:09.233Z,101685.50
2022-10-04T13:39:20.464Z,101675.03
2022-10-04T13:42:01.535Z,101674.75
2022-10-04T13:44:48.196Z,101672.69
2022-10-04T13:47:30.482Z,101672.69
2022-10-04T13:50:13.882Z,101671.09
2022-10-04T13:53:06.395Z,101669.19
2022-10-04T13:55:57.203Z,101679.56
2022-10-04T13:58:36.662Z,101673.09
2022-10-04T14:01:27.196Z,101655.94
2022-10-04T14:04:07.147Z,101653.19
2022-10-04T14:07:07.994Z,101659.16
2022-10-04T14:09:52.081Z,101653.69
2022-10-04T14:12:38.640Z,101651.47
2022-10-04T14:15:54.832Z,101653.63
2022-10-04T14:18:56.080Z,101647.16
2022-10-04T14:21:48.532Z,101641.09
2022-10-04T14:24:48.668Z,101642.56
2022-10-04T14:27:56.065Z,101641.84
2022-10-04T14:30:35.229Z,101636.34
2022-10-04T14:33:17.329Z,101638.41
2022-10-04T14:35:53.038Z,101647.94
2022-10-04T14:39:02.461Z,101648.19
2022-10-04T14:42:09.783Z,101641.84
2022-10-04T14:44:51.313Z,101659.19
2022-10-04T14:47:36.203Z,101664.44
2022-10-04T14:50:19.058Z,101665.06
2022-10-04T14:52:56.969Z,101652.16
2022-10-04T14:55:49.169Z,101643.25
2022-10-04T14:58:23.126Z,101632.03
2022-10-04T15:01:06.532Z,101632.47
2022-10-04T15:03:42.160Z,101632.94
2022-10-04T15:06:22.191Z,101626.53
2022-10-04T15:09:04.558Z,101624.75
2022-10-04T15:11:43.287Z,101626.50
2022-10-04T15:14:27.853Z,101615.91
2022-10-04T15:16:58.204Z,101619.38
2022-10-04T15:19:31.533Z,101627.50
2022-10-04T15:22:08.989Z,101625.69
2022-10-04T15:24:49.001Z,101623.94
2022-10-04T15:27:49.632Z,101640.50
2022-10-04T15:30:30.972Z,101647.44
2022-10-04T15:33:15.163Z,101643.84
2022-10-04T15:36:05.311Z,101627.56
2022-10-04T15:38:37.073Z,101614.41
2022-10-04T15:41:08.347Z,101612.97
2022-10-04T15:43:43.773Z,101606.25
2022-10-04T15:46:31.633Z,101610.03
2022-10-04T15:49:17.935Z,101606.53
2022-10-04T15:52:03.183Z,101607.56
2022-10-04T15:54:44.558Z,101599.13
2022-10-04T15:57:24.924Z,101604.13
2022-10-04T15:59:55.597Z,101599.28
2022-10-04T16:02:54.406Z,101598.00
2022-10-04T16:05:28.477Z,101589.84
2022-10-04T16:08:28.333Z,101589.53
2022-10-04T16:11:14.362Z,101590.81
2022-10-04T16:14:38.946Z,101583.22
2022-10-04T16:17:33.693Z,101586.84
2022-10-04T16:20:39.490Z,101596.84
2022-10-04T16:23:29.807Z,101593.19
2022-10-04T16:25:58.753Z,101596.09
2022-10-04T16:28:51.615Z,101588.28
2022-10-04T16:31:25.036Z,101588.19
2022-10-04T16:33:57.814Z,101579.69
2022-10-04T16:36:31.989Z,101583.13
2022-10-04T16:39:19.881Z,101576.09
2022-10-04T16:41:56.581Z,101575.84
2022-10-04T16:44:32.518Z,101569.25
2022-10-04T16:47:03.143Z,101571.44
2022-10-04T16:49:40.216Z,101566.00
2022-10-04T16:52:22.289Z,101569.44
2022-10-04T16:55:33.803Z,101573.94
2022-10-04T16:58:38.682Z,101574.19
2022-10-04T17:01:52.899Z,101569.44
2022-10-04T17:04:52.245Z,101553.50
2022-10-04T17:07:25.336Z,101557.81
2022-10-04T17:10:02.825Z,101547.34
2022-10-04T17:12:36.937Z,101546.94
2022-10-04T17:15:21.121Z,101553.97
2022-10-04T17:17:53.542Z,101565.59
2022-10-04T17:20:29.727Z,101567.75
2022-10-04T17:23:18.629Z,101560.56
2022-10-04T17:25:55.374Z,101562.28
2022-10-04T17:28:30.467Z,101575.91
2022-10-04T17:31:04.115Z,101574.47
2022-10-04T17:33:42.730Z,101581.19
2022-10-04T17:36:28.181Z,101569.41
2022-10-04T17:39:03.849Z,101574.97
2022-10-04T17:41:43.150Z,101564.53
2022-10-04T17:44:26.255Z,101566.09
2022-10-04T17:46:59.402Z,101570.97
2022-10-04T17:49:54.092Z,101560.34
2022-10-04T17:52:43.056Z,101556.59
2022-10-04T17:55:19.402Z,101569.41
2022-10-04T17:57:52.259Z,101564.22
2022-10-04T18:00:21.572Z,101565.09
2022-10-04T18:03:06.773Z,101568.25
2022-10-04T18:05:44.307Z,101568.25
2022-10-04T18:08:17.846Z,101576.41
2022-10-04T18:10:50.588Z,101593.38
2022-10-04T18:13:27.502Z,101583.84
2022-10-04T18:16:00.647Z,101581.38
2022-10-04T18:18:31.188Z,101578.44
2022-10-04T18:21:05.334Z,101575.44
2022-10-04T18:23:36.291Z,101586.19
2022-10-04T18:26:09.316Z,101578.44
2022-10-04T18:28:38.882Z,101568.25
2022-10-04T18:31:21.793Z,101557.16
2022-10-04T18:33:51.489Z,101549.63
2022-10-04T18:36:23.594Z,101550.66
2022-10-04T18:39:03.354Z,101545.31
2022-10-04T18:41:45.949Z,101546.19
2022-10-04T18:44:17.422Z,101536.59
2022-10-04T18:46:51.327Z,101539.16
2022-10-04T18:49:24.692Z,101531.69
2022-10-04T18:52:02.139Z,101530.25
2022-10-04T18:54:35.632Z,101524.38
2022-10-04T18:57:11.049Z,101532.69
2022-10-04T19:00:06.154Z,101549.03
2022-10-04T19:02:38.614Z,101549.84
2022-10-04T19:05:14.183Z,101562.59
2022-10-04T19:07:44.678Z,101570.75
2022-10-04T19:10:23.222Z,101587.03
2022-10-04T19:13:03.592Z,101609.31
2022-10-04T19:15:43.930Z,101618.03
2022-10-04T19:18:23.175Z,101619.31
2022-10-04T19:20:56.329Z,101609.31
2022-10-04T19:23:29.402Z,101586.47
2022-10-04T19:26:30.669Z,101568.78
2022-10-04T19:28:52.082Z,101561.06
2022-10-04T19:31:26.008Z,101565.63
2022-10-04T19:33:56.869Z,101554.44
2022-10-04T19:36:46.374Z,101559.97
2022-10-04T19:39:34.286Z,101540.66
2022-10-04T19:42:04.536Z,101538.91
2022-10-04T19:44:38.619Z,101547.34
2022-10-04T19:47:14.470Z,101550.06
2022-10-04T19:49:48.770Z,101560.25
2022-10-04T19:52:23.812Z,101563.94
2022-10-04T19:54:54.681Z,101556.66
2022-10-04T19:57:33.293Z,101557.31
2022-10-04T20:00:02.329Z,101558.88
2022-10-04T20:02:31.665Z,101562.72
2022-10-04T20:04:59.841Z,101552.41
2022-10-04T20:07:28.642Z,101552.41
2022-10-04T20:09:59.446Z,101553.00
2022-10-04T20:12:36.470Z,101549.56
2022-10-04T20:15:27.398Z,101564.81
2022-10-04T20:17:58.136Z,101566.56
2022-10-04T20:21:03.567Z,101581.75
2022-10-04T20:23:59.030Z,101582.19
2022-10-04T20:27:06.739Z,101565.53
2022-10-04T20:30:06.739Z,101548.50
2022-10-04T20:33:02.081Z,101540.06
2022-10-04T20:36:09.101Z,101541.81
2022-10-04T20:38:51.049Z,101537.97
2022-10-04T20:42:04.465Z,101530.50
2022-10-04T20:44:50.777Z,101525.69
2022-10-04T20:47:23.968Z,101525.38
2022-10-04T20:49:56.310Z,101517.81
2022-10-04T20:52:26.290Z,101510.81
2022-10-04T20:54:55.233Z,101496.50
2022-10-04T20:57:23.769Z,101489.19
2022-10-04T20:59:54.630Z,101486.50
2022-10-04T21:02:24.368Z,101495.69
2022-10-04T21:04:54.073Z,101493.09
2022-10-04T21:07:23.761Z,101498.06
2022-10-04T21:09:53.212Z,101506.25
2022-10-04T21:12:29.954Z,101519.56
2022-10-04T21:15:07.100Z,101517.66
2022-10-04T21:17:37.314Z,101526.50
2022-10-04T21:20:10.893Z,101531.38
2022-10-04T21:22:39.728Z,101535.97
2022-10-04T21:25:31.048Z,101538.06
2022-10-04T21:28:38.563Z,101549.09
2022-10-04T21:31:06.691Z,101552.34
2022-10-04T21:33:35.826Z,101548.44
2022-10-04T21:36:05.939Z,101539.28
2022-10-04T21:38:33.955Z,101542.41
2022-10-04T21:41:02.006Z,101533.00
2022-10-04T21:43:30.172Z,101539.16
2022-10-04T21:45:58.295Z,101533.56
2022-10-04T21:48:27.516Z,101536.28
2022-10-04T21:50:56.112Z,101530.59
2022-10-04T21:53:25.551Z,101532.56
2022-10-04T21:55:53.469Z,101531.72
2022-10-04T21:58:21.383Z,101527.25
2022-10-04T22:00:49.472Z,101529.25
2022-10-04T22:03:17.478Z,101531.09
2022-10-04T22:05:45.359Z,101521.69
2022-10-04T22:08:13.250Z,101526.69
2022-10-04T22:10:43.489Z,101528.69
2022-10-04T22:13:11.400Z,101522.22
2022-10-04T22:15:39.336Z,101523.09
2022-10-04T22:18:07.564Z,101519.75
2022-10-04T22:20:35.541Z,101516.06
2022-10-04T22:23:03.941Z,101509.75
2022-10-04T22:25:31.865Z,101515.13
2022-10-04T22:28:01.449Z,101512.66
2022-10-04T22:30:31.239Z,101506.50
2022-10-04T22:33:00.459Z,101500.44
2022-10-04T22:35:31.590Z,101494.47
2022-10-04T22:38:00.946Z,101492.47
2022-10-04T22:40:29.965Z,101486.16
2022-10-04T22:43:01.001Z,101486.44
2022-10-04T22:45:33.543Z,101482.00
2022-10-04T22:48:02.573Z,101481.75
2022-10-04T22:50:33.038Z,101488.44
2022-10-04T22:53:05.183Z,101488.19
2022-10-04T22:55:33.196Z,101485.72
2022-10-04T22:58:02.707Z,101491.88
2022-10-04T23:00:30.604Z,101477.91
2022-10-04T23:02:58.695Z,101477.47
2022-10-04T23:05:26.639Z,101474.75
2022-10-04T23:07:54.536Z,101470.75
2022-10-04T23:10:22.520Z,101481.94
2022-10-04T23:12:50.806Z,101481.94
2022-10-04T23:15:21.318Z,101477.75
2022-10-04T23:17:55.023Z,101477.22
2022-10-04T23:20:23.806Z,101466.75
2022-10-04T23:22:52.921Z,101466.31
2022-10-04T23:25:22.410Z,101469.06
2022-10-04T23:27:50.473Z,101466.06
2022-10-04T23:30:21.417Z,101454.91
2022-10-04T23:32:51.229Z,101457.91
2022-10-04T23:35:21.149Z,101454.03
2022-10-04T23:37:49.930Z,101459.59
2022-10-04T23:40:20.026Z,101455.75
2022-10-04T23:42:48.546Z,101465.03
2022-10-04T23:45:20.568Z,101455.56
2022-10-04T23:47:51.060Z,101454.72
2022-10-04T23:50:23.010Z,101446.81
2022-10-04T23:52:52.216Z,101458.28
2022-10-04T23:55:23.279Z,101451.13
2022-10-04T23:57:51.834Z,101447.81
